createdAt,value
2016-02-15T00:00:15.035Z,991.08
2016-02-15T00:01:15.005Z,991.13
2016-02-15T00:02:14.977Z,991.13
2016-02-15T00:03:14.965Z,991.15
2016-02-15T00:04:14.935Z,991.14
2016-02-15T00:05:14.906Z,991.19
2016-02-15T00:06:14.879Z,991.2
2016-02-15T00:07:14.865Z,991.24
2016-02-15T00:08:14.837Z,991.27
2016-02-15T00:09:14.809Z,991.24
2016-02-15T00:10:14.795Z,991.27
2016-02-15T00:11:14.751Z,991.28
2016-02-15T00:12:14.739Z,991.31
2016-02-15T00:13:14.709Z,991.32
2016-02-15T00:14:14.697Z,991.35
2016-02-15T00:15:14.653Z,991.35
2016-02-15T00:16:14.640Z,991.35
2016-02-15T00:17:14.611Z,991.34
2016-02-15T00:18:14.598Z,991.35
2016-02-15T00:19:14.569Z,991.36
2016-02-15T00:20:14.542Z,991.39
2016-02-15T00:21:14.513Z,991.37
2016-02-15T00:22:14.483Z,991.4
2016-02-15T00:23:14.471Z,991.44
2016-02-15T00:24:14.442Z,991.45
2016-02-15T00:25:14.414Z,991.46
2016-02-15T00:26:14.401Z,991.44
2016-02-15T00:27:14.372Z,991.44
2016-02-15T00:28:14.360Z,991.44
2016-02-15T00:29:14.315Z,991.44
2016-02-15T00:30:14.302Z,991.45
2016-02-15T00:31:14.274Z,991.54
2016-02-15T00:32:14.245Z,991.49
2016-02-15T00:33:14.217Z,991.55
2016-02-15T00:34:14.204Z,991.53
2016-02-15T00:35:14.175Z,991.56
2016-02-15T00:36:14.147Z,991.57
2016-02-15T00:37:14.134Z,991.59
2016-02-15T00:38:14.089Z,991.59
2016-02-15T00:39:14.076Z,991.59
2016-02-15T00:40:14.048Z,991.61
2016-02-15T00:41:14.035Z,991.61
2016-02-15T00:42:14.006Z,991.67
2016-02-15T00:43:13.978Z,991.69
2016-02-15T00:44:13.965Z,991.71
2016-02-15T00:45:13.937Z,991.74
2016-02-15T00:46:13.908Z,991.77
2016-02-15T00:47:13.878Z,991.81
2016-02-15T00:48:13.851Z,991.82
2016-02-15T00:49:13.822Z,991.85
2016-02-15T00:50:13.809Z,991.84
2016-02-15T00:51:13.781Z,991.86
2016-02-15T00:52:13.752Z,991.9
2016-02-15T00:53:13.724Z,991.9
2016-02-15T00:54:13.711Z,991.92
2016-02-15T00:55:13.682Z,991.92
2016-02-15T00:56:13.653Z,991.98
2016-02-15T00:57:13.625Z,992.01
2016-02-15T00:58:13.613Z,992.02
2016-02-15T00:59:13.583Z,992
2016-02-15T01:00:13.554Z,992.01
2016-02-15T01:01:13.527Z,992.01
2016-02-15T01:02:13.513Z,992.05
2016-02-15T01:03:13.484Z,992.07
2016-02-15T01:04:13.471Z,992.08
2016-02-15T01:05:13.443Z,992.08
2016-02-15T01:06:13.415Z,992.09
2016-02-15T01:07:13.621Z,992.17
2016-02-15T01:08:13.357Z,992.19
2016-02-15T01:09:13.329Z,992.2
2016-02-15T01:10:13.316Z,992.22
2016-02-15T01:11:13.287Z,992.24
2016-02-15T01:12:13.273Z,992.27
2016-02-15T01:13:13.234Z,992.32
2016-02-15T01:14:13.194Z,992.37
2016-02-15T01:15:13.155Z,992.41
2016-02-15T01:16:13.115Z,992.45
2016-02-15T01:17:13.091Z,992.5
2016-02-15T01:18:13.074Z,992.51
2016-02-15T01:19:13.025Z,992.5
2016-02-15T01:20:13.008Z,992.57
2016-02-15T01:21:12.991Z,992.56
2016-02-15T01:22:12.943Z,992.56
2016-02-15T01:23:12.913Z,992.61
2016-02-15T01:24:12.884Z,992.62
2016-02-15T01:25:12.868Z,992.61
2016-02-15T01:26:12.838Z,992.66
2016-02-15T01:27:12.824Z,992.64
2016-02-15T01:28:12.779Z,992.73
2016-02-15T01:29:12.766Z,992.75
2016-02-15T01:30:12.738Z,992.78
2016-02-15T01:31:12.708Z,992.82
2016-02-15T01:32:12.680Z,992.83
2016-02-15T01:33:12.666Z,992.84
2016-02-15T01:34:12.637Z,992.94
2016-02-15T01:35:12.610Z,992.91
2016-02-15T01:36:12.581Z,992.94
2016-02-15T01:37:12.567Z,992.93
2016-02-15T01:38:12.540Z,992.97
2016-02-15T01:39:12.511Z,993
2016-02-15T01:40:12.482Z,993.02
2016-02-15T01:41:12.470Z,993.01
2016-02-15T01:42:12.440Z,993
2016-02-15T01:43:12.443Z,993.04
2016-02-15T01:44:12.400Z,993.04
2016-02-15T01:45:12.370Z,993.04
2016-02-15T01:46:12.342Z,993.09
2016-02-15T01:47:12.314Z,993.09
2016-02-15T01:48:12.300Z,993.13
2016-02-15T01:49:12.273Z,993.14
2016-02-15T01:50:12.244Z,993.16
2016-02-15T01:51:12.214Z,993.16
2016-02-15T01:52:12.202Z,993.17
2016-02-15T01:53:12.174Z,993.21
2016-02-15T01:54:12.144Z,993.22
2016-02-15T01:55:12.116Z,993.25
2016-02-15T01:56:12.103Z,993.3
2016-02-15T01:57:12.074Z,993.32
2016-02-15T01:58:12.047Z,993.34
2016-02-15T01:59:12.018Z,993.37
2016-02-15T02:00:12.004Z,993.36
2016-02-15T02:01:11.977Z,993.39
2016-02-15T02:02:11.948Z,993.48
2016-02-15T02:03:11.934Z,993.46
2016-02-15T02:04:12.032Z,993.48
2016-02-15T02:05:11.877Z,993.46
2016-02-15T02:06:11.849Z,993.52
2016-02-15T02:07:11.821Z,993.52
2016-02-15T02:08:11.807Z,993.54
2016-02-15T02:09:11.779Z,993.51
2016-02-15T02:10:11.751Z,993.57
2016-02-15T02:11:11.737Z,993.63
2016-02-15T02:12:11.709Z,993.62
2016-02-15T02:13:11.681Z,993.67
2016-02-15T02:14:11.651Z,993.67
2016-02-15T02:15:11.639Z,993.69
2016-02-15T02:16:11.611Z,993.73
2016-02-15T02:17:11.581Z,993.73
2016-02-15T02:18:11.553Z,993.76
2016-02-15T02:19:11.540Z,993.77
2016-02-15T02:20:11.511Z,993.79
2016-02-15T02:21:11.483Z,993.8
2016-02-15T02:22:11.470Z,993.83
2016-02-15T02:23:11.442Z,993.89
2016-02-15T02:24:11.428Z,993.87
2016-02-15T02:25:11.385Z,993.9
2016-02-15T02:26:11.371Z,993.96
2016-02-15T02:27:11.344Z,993.98
2016-02-15T02:28:11.314Z,994
2016-02-15T02:29:11.285Z,994.03
2016-02-15T02:30:11.274Z,994.04
2016-02-15T02:31:11.244Z,994.06
2016-02-15T02:32:11.216Z,994.09
2016-02-15T02:33:11.187Z,994.11
2016-02-15T02:34:11.174Z,994.1
2016-02-15T02:35:11.146Z,994.09
2016-02-15T02:36:11.118Z,994.13
2016-02-15T02:37:11.088Z,994.15
2016-02-15T02:38:11.060Z,994.14
2016-02-15T02:39:11.048Z,994.17
2016-02-15T02:40:11.034Z,994.2
2016-02-15T02:41:11.006Z,994.21
2016-02-15T02:42:10.962Z,994.24
2016-02-15T02:43:10.948Z,994.24
2016-02-15T02:44:10.920Z,994.27
2016-02-15T02:45:10.892Z,994.27
2016-02-15T02:46:10.878Z,994.32
2016-02-15T02:47:10.850Z,994.32
2016-02-15T02:48:10.822Z,994.37
2016-02-15T02:49:10.809Z,994.4
2016-02-15T02:50:10.780Z,994.45
2016-02-15T02:51:10.751Z,994.48
2016-02-15T02:52:10.722Z,994.49
2016-02-15T02:53:10.694Z,994.5
2016-02-15T02:54:10.681Z,994.51
2016-02-15T02:55:10.652Z,994.52
2016-02-15T02:56:10.671Z,994.56
2016-02-15T02:57:10.596Z,994.62
2016-02-15T02:58:10.583Z,994.67
2016-02-15T02:59:10.554Z,994.67
2016-02-15T03:00:10.525Z,994.69
2016-02-15T03:01:10.763Z,994.73
2016-02-15T03:02:10.484Z,994.71
2016-02-15T03:03:10.455Z,994.72
2016-02-15T03:04:10.426Z,994.74
2016-02-15T03:05:10.399Z,994.81
2016-02-15T03:06:10.385Z,994.81
2016-02-15T03:07:10.357Z,994.87
2016-02-15T03:08:10.329Z,994.89
2016-02-15T03:09:10.299Z,994.89
2016-02-15T03:10:10.287Z,994.92
2016-02-15T03:11:10.259Z,994.94
2016-02-15T03:12:10.229Z,994.95
2016-02-15T03:13:10.217Z,995.02
2016-02-15T03:14:10.187Z,995.03
2016-02-15T03:15:10.160Z,995.01
2016-02-15T03:16:10.131Z,995.07
2016-02-15T03:17:10.118Z,995.1
2016-02-15T03:18:10.089Z,995.13
2016-02-15T03:19:10.061Z,995.16
2016-02-15T03:20:10.033Z,995.14
2016-02-15T03:21:10.003Z,995.16
2016-02-15T03:22:09.991Z,995.19
2016-02-15T03:23:09.962Z,995.16
2016-02-15T03:24:09.934Z,995.17
2016-02-15T03:25:09.905Z,995.2
2016-02-15T03:26:09.892Z,995.16
2016-02-15T03:27:09.864Z,995.21
2016-02-15T03:28:09.836Z,995.22
2016-02-15T03:29:09.807Z,995.28
2016-02-15T03:30:09.793Z,995.29
2016-02-15T03:31:09.766Z,995.27
2016-02-15T03:32:09.736Z,995.36
2016-02-15T03:33:09.724Z,995.36
2016-02-15T03:34:09.695Z,995.36
2016-02-15T03:35:09.666Z,995.37
2016-02-15T03:36:09.638Z,995.41
2016-02-15T03:37:09.609Z,995.46
2016-02-15T03:38:09.596Z,995.46
2016-02-15T03:39:09.568Z,995.44
2016-02-15T03:40:09.540Z,995.47
2016-02-15T03:41:09.526Z,995.5
2016-02-15T03:42:09.498Z,995.55
2016-02-15T03:43:09.470Z,995.51
2016-02-15T03:44:09.456Z,995.54
2016-02-15T03:45:09.428Z,995.55
2016-02-15T03:46:09.399Z,995.59
2016-02-15T03:47:09.370Z,995.6
2016-02-15T03:48:09.342Z,995.65
2016-02-15T03:49:09.314Z,995.64
2016-02-15T03:50:09.301Z,995.69
2016-02-15T03:51:09.287Z,995.71
2016-02-15T03:52:09.244Z,995.7
2016-02-15T03:53:09.215Z,995.78
2016-02-15T03:54:09.203Z,995.81
2016-02-15T03:55:09.205Z,995.82
2016-02-15T03:56:09.144Z,995.85
2016-02-15T03:57:09.116Z,995.85
2016-02-15T03:58:09.197Z,995.89
2016-02-15T03:59:09.075Z,995.94
2016-02-15T04:00:09.046Z,995.96
2016-02-15T04:01:09.033Z,995.98
2016-02-15T04:02:09.005Z,996.03
2016-02-15T04:03:08.974Z,996.07
2016-02-15T04:04:08.945Z,996.03
2016-02-15T04:05:08.932Z,996.07
2016-02-15T04:06:08.903Z,996.14
2016-02-15T04:07:08.875Z,996.18
2016-02-15T04:08:08.893Z,996.2
2016-02-15T04:09:08.833Z,996.23
2016-02-15T04:10:08.805Z,996.26
2016-02-15T04:11:08.776Z,996.28
2016-02-15T04:12:08.748Z,996.27
2016-02-15T04:13:08.735Z,996.3
2016-02-15T04:14:08.706Z,996.38
2016-02-15T04:15:08.693Z,996.41
2016-02-15T04:16:08.649Z,996.39
2016-02-15T04:17:08.636Z,996.44
2016-02-15T04:18:08.607Z,996.44
2016-02-15T04:19:08.579Z,996.45
2016-02-15T04:20:08.550Z,996.47
2016-02-15T04:21:08.537Z,996.49
2016-02-15T04:22:08.509Z,996.48
2016-02-15T04:23:08.480Z,996.49
2016-02-15T04:24:08.452Z,996.48
2016-02-15T04:25:08.439Z,996.5
2016-02-15T04:26:08.410Z,996.51
2016-02-15T04:27:08.382Z,996.52
2016-02-15T04:28:08.353Z,996.52
2016-02-15T04:29:08.324Z,996.56
2016-02-15T04:30:08.312Z,996.59
2016-02-15T04:31:08.283Z,996.61
2016-02-15T04:32:08.254Z,996.6
2016-02-15T04:33:08.242Z,996.67
2016-02-15T04:34:08.213Z,996.69
2016-02-15T04:35:08.185Z,996.7
2016-02-15T04:36:08.155Z,996.72
2016-02-15T04:37:08.158Z,996.74
2016-02-15T04:38:08.114Z,996.75
2016-02-15T04:39:08.102Z,996.77
2016-02-15T04:40:08.057Z,996.83
2016-02-15T04:41:08.028Z,996.86
2016-02-15T04:42:08.016Z,996.87
2016-02-15T04:43:07.987Z,996.92
2016-02-15T04:44:07.959Z,996.91
2016-02-15T04:45:07.930Z,996.95
2016-02-15T04:46:07.917Z,997.01
2016-02-15T04:47:07.889Z,997.04
2016-02-15T04:48:07.860Z,997.03
2016-02-15T04:49:07.847Z,997.1
2016-02-15T04:50:07.818Z,997.09
2016-02-15T04:51:07.790Z,997.15
2016-02-15T04:52:07.761Z,997.17
2016-02-15T04:53:07.749Z,997.2
2016-02-15T04:54:07.720Z,997.21
2016-02-15T04:55:07.910Z,997.21
2016-02-15T04:56:07.664Z,997.24
2016-02-15T04:57:07.634Z,997.28
2016-02-15T04:58:07.621Z,997.28
2016-02-15T04:59:07.592Z,997.3
2016-02-15T05:00:07.564Z,997.3
2016-02-15T05:01:07.535Z,997.39
2016-02-15T05:02:07.523Z,997.39
2016-02-15T05:03:07.494Z,997.45
2016-02-15T05:04:07.480Z,997.47
2016-02-15T05:05:07.438Z,997.49
2016-02-15T05:06:07.424Z,997.49
2016-02-15T05:07:07.395Z,997.52
2016-02-15T05:08:07.383Z,997.53
2016-02-15T05:09:07.354Z,997.56
2016-02-15T05:10:07.326Z,997.59
2016-02-15T05:11:07.297Z,997.58
2016-02-15T05:12:07.269Z,997.59
2016-02-15T05:13:07.255Z,997.64
2016-02-15T05:14:07.227Z,997.63
2016-02-15T05:15:07.198Z,997.67
2016-02-15T05:16:07.170Z,997.71
2016-02-15T05:17:07.141Z,997.73
2016-02-15T05:18:07.128Z,997.71
2016-02-15T05:19:07.100Z,997.78
2016-02-15T05:20:07.071Z,997.75
2016-02-15T05:21:07.042Z,997.77
2016-02-15T05:22:07.029Z,997.79
2016-02-15T05:23:07.001Z,997.79
2016-02-15T05:24:06.972Z,997.78
2016-02-15T05:25:06.959Z,997.81
2016-02-15T05:26:06.931Z,997.81
2016-02-15T05:27:06.902Z,997.84
2016-02-15T05:28:06.875Z,997.85
2016-02-15T05:29:06.845Z,997.87
2016-02-15T05:30:06.832Z,997.95
2016-02-15T05:31:06.804Z,997.93
2016-02-15T05:32:06.775Z,997.96
2016-02-15T05:33:06.763Z,997.96
2016-02-15T05:34:06.749Z,997.95
2016-02-15T05:35:06.705Z,998
2016-02-15T05:36:06.677Z,997.99
2016-02-15T05:37:06.649Z,997.99
2016-02-15T05:38:06.635Z,998.07
2016-02-15T05:39:06.606Z,998.06
2016-02-15T05:40:06.578Z,998.09
2016-02-15T05:41:06.549Z,998.15
2016-02-15T05:42:06.536Z,998.13
2016-02-15T05:43:06.507Z,998.16
2016-02-15T05:44:06.479Z,998.23
2016-02-15T05:45:06.466Z,998.22
2016-02-15T05:46:06.438Z,998.3
2016-02-15T05:47:06.409Z,998.19
2016-02-15T05:48:06.381Z,998.29
2016-02-15T05:49:06.352Z,998.31
2016-02-15T05:50:06.339Z,998.34
2016-02-15T05:51:06.311Z,998.38
2016-02-15T05:52:06.517Z,998.4
2016-02-15T05:53:06.270Z,998.4
2016-02-15T05:54:06.240Z,998.47
2016-02-15T05:55:06.212Z,998.42
2016-02-15T05:56:06.184Z,998.56
2016-02-15T05:57:06.155Z,998.56
2016-02-15T05:58:06.142Z,998.56
2016-02-15T05:59:06.114Z,998.63
2016-02-15T06:00:06.085Z,998.63
2016-02-15T06:01:06.056Z,998.6
2016-02-15T06:02:06.043Z,998.67
2016-02-15T06:03:06.015Z,998.76
2016-02-15T06:04:05.986Z,998.75
2016-02-15T06:05:05.958Z,998.82
2016-02-15T06:06:05.944Z,998.79
2016-02-15T06:07:05.916Z,998.86
2016-02-15T06:08:05.903Z,998.87
2016-02-15T06:09:05.874Z,998.9
2016-02-15T06:10:05.846Z,998.94
2016-02-15T06:11:05.818Z,998.95
2016-02-15T06:12:05.789Z,998.97
2016-02-15T06:13:05.760Z,998.99
2016-02-15T06:14:05.748Z,999.04
2016-02-15T06:15:05.718Z,999.07
2016-02-15T06:16:05.691Z,999.08
2016-02-15T06:17:05.693Z,999.15
2016-02-15T06:18:05.648Z,999.15
2016-02-15T06:19:05.621Z,999.12
2016-02-15T06:20:05.592Z,999.2
2016-02-15T06:21:05.579Z,999.23
2016-02-15T06:22:05.534Z,999.26
2016-02-15T06:23:05.522Z,999.29
2016-02-15T06:24:05.493Z,999.34
2016-02-15T06:25:05.465Z,999.35
2016-02-15T06:26:05.451Z,999.38
2016-02-15T06:27:05.422Z,999.42
2016-02-15T06:28:05.395Z,999.47
2016-02-15T06:29:05.366Z,999.52
2016-02-15T06:30:05.337Z,999.53
2016-02-15T06:31:05.325Z,999.56
2016-02-15T06:32:05.296Z,999.58
2016-02-15T06:33:05.267Z,999.63
2016-02-15T06:34:05.239Z,999.66
2016-02-15T06:35:05.241Z,999.66
2016-02-15T06:36:05.197Z,999.7
2016-02-15T06:37:05.169Z,999.75
2016-02-15T06:38:05.140Z,999.79
2016-02-15T06:39:05.128Z,999.79
2016-02-15T06:40:05.099Z,999.85
2016-02-15T06:41:05.070Z,999.81
2016-02-15T06:42:05.058Z,999.87
2016-02-15T06:43:05.029Z,999.89
2016-02-15T06:44:04.999Z,999.95
2016-02-15T06:45:04.971Z,999.92
2016-02-15T06:46:04.959Z,999.93
2016-02-15T06:47:04.929Z,999.98
2016-02-15T06:48:04.902Z,1000
2016-02-15T06:49:04.873Z,1000.06
2016-02-15T06:50:04.859Z,1000.07
2016-02-15T06:51:04.832Z,1000.14
2016-02-15T06:52:04.834Z,1000.13
2016-02-15T06:53:04.773Z,1000.17
2016-02-15T06:54:04.746Z,1000.2
2016-02-15T06:55:04.733Z,1000.22
2016-02-15T06:56:04.704Z,1000.27
2016-02-15T06:57:04.676Z,1000.27
2016-02-15T06:58:04.647Z,1000.34
2016-02-15T06:59:04.634Z,1000.38
2016-02-15T07:00:04.606Z,1000.41
2016-02-15T07:01:04.577Z,1000.44
2016-02-15T07:02:04.548Z,1000.43
2016-02-15T07:03:04.520Z,1000.48
2016-02-15T07:04:04.507Z,1000.47
2016-02-15T07:05:04.494Z,1000.55
2016-02-15T07:06:04.450Z,1000.53
2016-02-15T07:07:04.421Z,1000.55
2016-02-15T07:08:04.424Z,1000.59
2016-02-15T07:09:04.380Z,1000.63
2016-02-15T07:10:04.351Z,1000.66
2016-02-15T07:11:04.322Z,1000.67
2016-02-15T07:12:04.310Z,1000.79
2016-02-15T07:13:04.281Z,1000.75
2016-02-15T07:14:04.253Z,1000.78
2016-02-15T07:15:04.224Z,1000.81
2016-02-15T07:16:04.210Z,1000.88
2016-02-15T07:17:04.183Z,1000.87
2016-02-15T07:18:04.154Z,1000.93
2016-02-15T07:19:04.141Z,1000.95
2016-02-15T07:20:04.112Z,1000.98
2016-02-15T07:21:04.084Z,1000.98
2016-02-15T07:22:04.056Z,1001.06
2016-02-15T07:23:04.027Z,1001.1
2016-02-15T07:24:04.015Z,1001.17
2016-02-15T07:25:03.984Z,1001.16
2016-02-15T07:26:03.957Z,1001.21
2016-02-15T07:27:03.928Z,1001.23
2016-02-15T07:28:03.914Z,1001.29
2016-02-15T07:29:03.886Z,1001.27
2016-02-15T07:30:03.858Z,1001.27
2016-02-15T07:31:03.830Z,1001.31
2016-02-15T07:32:03.801Z,1001.29
2016-02-15T07:33:03.788Z,1001.3
2016-02-15T07:34:03.759Z,1001.36
2016-02-15T07:35:03.747Z,1001.36
2016-02-15T07:36:03.718Z,1001.41
2016-02-15T07:37:03.689Z,1001.34
2016-02-15T07:38:03.661Z,1001.39
2016-02-15T07:39:03.632Z,1001.35
2016-02-15T07:40:03.620Z,1001.43
2016-02-15T07:41:03.591Z,1001.51
2016-02-15T07:42:03.563Z,1001.5
2016-02-15T07:43:03.533Z,1001.53
2016-02-15T07:44:03.505Z,1001.53
2016-02-15T07:45:03.493Z,1001.6
2016-02-15T07:46:03.463Z,1001.55
2016-02-15T07:47:03.435Z,1001.65
2016-02-15T07:48:03.437Z,1001.65
2016-02-15T07:49:03.394Z,1001.65
2016-02-15T07:50:03.381Z,1001.6
2016-02-15T07:51:03.337Z,1001.67
2016-02-15T07:52:03.307Z,1001.69
2016-02-15T07:53:03.295Z,1001.7
2016-02-15T07:54:03.267Z,1001.73
2016-02-15T07:55:03.237Z,1001.75
2016-02-15T07:56:03.225Z,1001.75
2016-02-15T07:57:03.196Z,1001.78
2016-02-15T07:58:03.168Z,1001.83
2016-02-15T07:59:03.139Z,1001.87
2016-02-15T08:00:03.111Z,1001.9
2016-02-15T08:01:03.098Z,1001.92
2016-02-15T08:02:03.069Z,1001.92
2016-02-15T08:03:03.041Z,1001.94
2016-02-15T08:04:03.028Z,1001.97
2016-02-15T08:05:02.984Z,1001.94
2016-02-15T08:06:02.970Z,1001.96
2016-02-15T08:07:02.942Z,1002.04
2016-02-15T08:08:02.929Z,1002.05
2016-02-15T08:09:02.885Z,1002.11
2016-02-15T08:10:02.872Z,1002.08
2016-02-15T08:11:02.843Z,1002.15
2016-02-15T08:12:02.815Z,1002.21
2016-02-15T08:13:02.786Z,1002.23
2016-02-15T08:14:02.774Z,1002.23
2016-02-15T08:15:02.745Z,1002.27
2016-02-15T08:16:02.716Z,1002.32
2016-02-15T08:17:02.687Z,1002.3
2016-02-15T08:18:02.675Z,1002.31
2016-02-15T08:19:02.646Z,1002.41
2016-02-15T08:20:02.618Z,1002.42
2016-02-15T08:21:02.589Z,1002.39
2016-02-15T08:22:02.576Z,1002.52
2016-02-15T08:23:02.548Z,1002.51
2016-02-15T08:24:02.519Z,1002.51
2016-02-15T08:25:02.490Z,1002.51
2016-02-15T08:26:02.477Z,1002.61
2016-02-15T08:27:02.449Z,1002.57
2016-02-15T08:28:02.436Z,1002.6
2016-02-15T08:29:02.391Z,1002.61
2016-02-15T08:30:02.379Z,1002.61
2016-02-15T08:31:02.350Z,1002.69
2016-02-15T08:32:02.322Z,1002.66
2016-02-15T08:33:02.292Z,1002.74
2016-02-15T08:34:02.280Z,1002.76
2016-02-15T08:35:02.252Z,1002.79
2016-02-15T08:36:02.223Z,1002.78
2016-02-15T08:37:02.211Z,1002.86
2016-02-15T08:38:02.181Z,1002.78
2016-02-15T08:39:02.152Z,1002.91
2016-02-15T08:40:02.124Z,1002.92
2016-02-15T08:41:02.097Z,1002.95
2016-02-15T08:42:02.067Z,1002.97
2016-02-15T08:43:02.054Z,1002.98
2016-02-15T08:44:02.027Z,1002.98
2016-02-15T08:45:01.997Z,1003.04
2016-02-15T08:46:01.985Z,1003.04
2016-02-15T08:47:01.955Z,1003.05
2016-02-15T08:48:01.927Z,1003.05
2016-02-15T08:49:01.898Z,1003.12
2016-02-15T08:50:01.902Z,1003.13
2016-02-15T08:51:01.857Z,1003.14
2016-02-15T08:52:01.828Z,1003.15
2016-02-15T08:53:01.801Z,1003.16
2016-02-15T08:54:01.787Z,1003.17
2016-02-15T08:55:01.758Z,1003.23
2016-02-15T08:56:01.730Z,1003.24
2016-02-15T08:57:01.701Z,1003.22
2016-02-15T08:58:01.673Z,1003.25
2016-02-15T08:59:01.660Z,1003.32
2016-02-15T09:00:01.631Z,1003.3
2016-02-15T09:01:01.603Z,1003.29
2016-02-15T09:02:01.575Z,1003.32
2016-02-15T09:03:01.561Z,1003.33
2016-02-15T09:04:01.533Z,1003.37
2016-02-15T09:05:01.503Z,1003.42
2016-02-15T09:06:01.476Z,1003.43
2016-02-15T09:07:01.463Z,1003.45
2016-02-15T09:08:01.434Z,1003.51
2016-02-15T09:09:01.405Z,1003.55
2016-02-15T09:10:01.392Z,1003.54
2016-02-15T09:11:01.364Z,1003.6
2016-02-15T09:12:01.335Z,1003.59
2016-02-15T09:13:01.307Z,1003.62
2016-02-15T09:14:01.278Z,1003.62
2016-02-15T09:15:01.254Z,1003.65
2016-02-15T09:16:01.240Z,1003.68
2016-02-15T09:17:01.212Z,1003.71
2016-02-15T09:18:01.184Z,1003.73
2016-02-15T09:19:01.155Z,1003.74
2016-02-15T09:20:01.126Z,1003.76
2016-02-15T09:21:01.114Z,1003.8
2016-02-15T09:22:01.085Z,1003.82
2016-02-15T09:23:01.056Z,1003.89
2016-02-15T09:24:01.028Z,1003.89
2016-02-15T09:25:01.014Z,1003.86
2016-02-15T09:26:00.986Z,1003.91
2016-02-15T09:27:00.974Z,1003.91
2016-02-15T09:28:00.944Z,1003.98
2016-02-15T09:29:00.916Z,1003.93
2016-02-15T09:30:00.888Z,1003.96
2016-02-15T09:31:00.859Z,1004
2016-02-15T09:32:00.830Z,1004.02
2016-02-15T09:33:00.818Z,1004.02
2016-02-15T09:34:00.788Z,1004.06
2016-02-15T09:35:00.760Z,1004.04
2016-02-15T09:36:00.732Z,1004.1
2016-02-15T09:37:00.719Z,1004.18
2016-02-15T09:38:00.690Z,1004.16
2016-02-15T09:39:00.662Z,1004.15
2016-02-15T09:40:00.648Z,1004.24
2016-02-15T09:41:00.620Z,1004.29
2016-02-15T09:42:00.607Z,1004.29
2016-02-15T09:43:00.563Z,1004.25
2016-02-15T09:44:00.534Z,1004.4
2016-02-15T09:45:00.523Z,1004.39
2016-02-15T09:46:00.493Z,1004.44
2016-02-15T09:47:00.464Z,1004.42
2016-02-15T09:48:00.437Z,1004.44
2016-02-15T09:49:00.423Z,1004.48
2016-02-15T09:50:00.394Z,1004.48
2016-02-15T09:51:00.367Z,1004.55
2016-02-15T09:52:00.353Z,1004.59
2016-02-15T09:53:00.325Z,1004.6
2016-02-15T09:54:00.297Z,1004.58
2016-02-15T09:55:00.267Z,1004.61
2016-02-15T09:56:00.239Z,1004.71
2016-02-15T09:57:00.225Z,1004.7
2016-02-15T09:58:00.197Z,1004.74
2016-02-15T09:59:00.169Z,1004.76
2016-02-15T10:00:00.140Z,1004.82
2016-02-15T10:01:00.128Z,1004.84
2016-02-15T10:02:00.099Z,1004.87
2016-02-15T10:03:00.071Z,1004.88
2016-02-15T10:04:00.041Z,1004.93
2016-02-15T10:05:00.029Z,1004.91
2016-02-15T10:06:00.000Z,1004.98
2016-02-15T10:06:59.971Z,1004.98
2016-02-15T10:07:59.943Z,1005.05
2016-02-15T10:08:59.930Z,1005.11
2016-02-15T10:09:59.902Z,1005.14
2016-02-15T10:10:59.873Z,1005.2
2016-02-15T10:11:59.845Z,1005.27
2016-02-15T10:12:59.831Z,1005.23
2016-02-15T10:13:59.803Z,1005.27
2016-02-15T10:14:59.773Z,1005.31
2016-02-15T10:15:59.746Z,1005.39
2016-02-15T10:16:59.717Z,1005.32
2016-02-15T10:17:59.704Z,1005.45
2016-02-15T10:18:59.690Z,1005.49
2016-02-15T10:19:59.632Z,1005.43
2016-02-15T10:20:59.606Z,1005.45
2016-02-15T10:21:59.565Z,1005.56
2016-02-15T10:22:59.538Z,1005.58
2016-02-15T10:23:59.498Z,1005.57
2016-02-15T10:24:59.449Z,1005.62
2016-02-15T10:25:59.433Z,1005.65
2016-02-15T10:26:59.399Z,1005.72
2016-02-15T10:27:59.365Z,1005.73
2016-02-15T10:28:59.348Z,1005.8
2016-02-15T10:29:59.318Z,1005.78
2016-02-15T10:30:59.287Z,1005.79
2016-02-15T10:31:59.272Z,1005.83
2016-02-15T10:32:59.242Z,1005.88
2016-02-15T10:33:59.227Z,1005.85
2016-02-15T10:34:59.183Z,1005.9
2016-02-15T10:35:59.278Z,1005.91
2016-02-15T10:36:59.141Z,1005.96
2016-02-15T10:37:59.111Z,1006.04
2016-02-15T10:38:59.082Z,1006.03
2016-02-15T10:39:59.054Z,1006.06
2016-02-15T10:40:59.025Z,1006.11
2016-02-15T10:41:59.012Z,1006.17
2016-02-15T10:42:58.983Z,1006.18
2016-02-15T10:43:58.954Z,1006.14
2016-02-15T10:44:58.941Z,1006.22
2016-02-15T10:45:58.912Z,1006.27
2016-02-15T10:46:58.883Z,1006.24
2016-02-15T10:47:58.855Z,1006.26
2016-02-15T10:48:58.826Z,1006.24
2016-02-15T10:49:58.814Z,1006.25
2016-02-15T10:50:58.785Z,1006.34
2016-02-15T10:51:58.756Z,1006.35
2016-02-15T10:52:58.729Z,1006.33
2016-02-15T10:53:58.715Z,1006.39
2016-02-15T10:54:58.686Z,1006.4
2016-02-15T10:55:58.658Z,1006.42
2016-02-15T10:56:58.629Z,1006.44
2016-02-15T10:57:58.617Z,1006.48
2016-02-15T10:58:58.588Z,1006.45
2016-02-15T10:59:58.575Z,1006.46
2016-02-15T11:00:58.531Z,1006.57
2016-02-15T11:01:58.517Z,1006.57
2016-02-15T11:02:58.489Z,1006.54
2016-02-15T11:03:58.461Z,1006.54
2016-02-15T11:04:58.447Z,1006.59
2016-02-15T11:05:58.420Z,1006.61
2016-02-15T11:06:58.391Z,1006.61
2016-02-15T11:07:58.361Z,1006.59
2016-02-15T11:08:58.350Z,1006.63
2016-02-15T11:09:58.320Z,1006.63
2016-02-15T11:10:58.307Z,1006.61
2016-02-15T11:11:58.264Z,1006.66
2016-02-15T11:12:58.250Z,1006.65
2016-02-15T11:13:58.222Z,1006.7
2016-02-15T11:14:58.194Z,1006.74
2016-02-15T11:15:58.165Z,1006.73
2016-02-15T11:16:58.136Z,1006.69
2016-02-15T11:17:58.123Z,1006.74
2016-02-15T11:18:58.094Z,1006.8
2016-02-15T11:19:58.066Z,1006.78
2016-02-15T11:20:58.037Z,1006.82
2016-02-15T11:21:58.025Z,1006.84
2016-02-15T11:22:57.996Z,1006.91
2016-02-15T11:23:57.967Z,1006.84
2016-02-15T11:24:57.955Z,1006.85
2016-02-15T11:25:57.926Z,1006.93
2016-02-15T11:26:57.897Z,1006.98
2016-02-15T11:27:57.869Z,1006.95
2016-02-15T11:28:57.856Z,1007.04
2016-02-15T11:29:57.828Z,1007.07
2016-02-15T11:30:57.799Z,1007.13
2016-02-15T11:31:57.770Z,1007.1
2016-02-15T11:32:58.054Z,1007.15
2016-02-15T11:33:57.728Z,1007.2
2016-02-15T11:34:57.700Z,1007.13
2016-02-15T11:35:57.687Z,1007.24
2016-02-15T11:36:57.642Z,1007.23
2016-02-15T11:37:57.631Z,1007.22
2016-02-15T11:38:57.602Z,1007.22
2016-02-15T11:39:57.588Z,1007.3
2016-02-15T11:40:57.544Z,1007.28
2016-02-15T11:41:57.531Z,1007.33
2016-02-15T11:42:57.503Z,1007.31
2016-02-15T11:43:57.474Z,1007.34
2016-02-15T11:44:57.461Z,1007.38
2016-02-15T11:45:57.433Z,1007.38
2016-02-15T11:46:57.405Z,1007.41
2016-02-15T11:47:57.376Z,1007.43
2016-02-15T11:48:57.363Z,1007.43
2016-02-15T11:49:57.350Z,1007.48
2016-02-15T11:50:57.305Z,1007.53
2016-02-15T11:51:57.293Z,1007.5
2016-02-15T11:52:57.265Z,1007.54
2016-02-15T11:53:57.235Z,1007.5
2016-02-15T11:54:57.207Z,1007.57
2016-02-15T11:55:57.179Z,1007.58
2016-02-15T11:56:57.165Z,1007.62
2016-02-15T11:57:57.137Z,1007.65
2016-02-15T11:58:57.109Z,1007.67
2016-02-15T11:59:57.095Z,1007.73
2016-02-15T12:00:57.067Z,1007.73
2016-02-15T12:01:57.039Z,1007.75
2016-02-15T12:02:57.010Z,1007.78
2016-02-15T12:03:56.981Z,1007.83
2016-02-15T12:04:56.968Z,1007.88
2016-02-15T12:05:56.940Z,1007.87
2016-02-15T12:06:56.911Z,1007.93
2016-02-15T12:07:56.883Z,1007.91
2016-02-15T12:08:56.870Z,1007.98
2016-02-15T12:09:56.841Z,1007.94
2016-02-15T12:10:56.813Z,1007.95
2016-02-15T12:11:56.800Z,1008
2016-02-15T12:12:56.771Z,1008.01
2016-02-15T12:13:56.742Z,1008.06
2016-02-15T12:14:56.714Z,1008.04
2016-02-15T12:15:56.686Z,1008.06
2016-02-15T12:16:56.672Z,1008.09
2016-02-15T12:17:56.644Z,1008.13
2016-02-15T12:18:56.631Z,1008.23
2016-02-15T12:19:56.588Z,1008.25